createdAt,value
2024-05-09T00:03:10.096Z,13.20
2024-05-09T00:08:13.275Z,14.07
2024-05-09T00:13:14.949Z,17.25
2024-05-09T00:18:16.741Z,13.70
2024-05-09T00:23:18.447Z,13.73
2024-05-09T00:28:20.042Z,14.02
2024-05-09T00:33:21.832Z,13.27
2024-05-09T00:38:23.472Z,15.55
2024-05-09T00:43:25.016Z,13.50
2024-05-09T00:48:27.194Z,13.82
2024-05-09T00:53:29.506Z,13.40
2024-05-09T00:58:31.777Z,17.52
2024-05-09T01:03:33.475Z,15.25
2024-05-09T01:08:35.270Z,12.13
2024-05-09T01:13:36.882Z,17.02
2024-05-09T01:18:38.614Z,15.30
2024-05-09T01:23:40.262Z,16.65
2024-05-09T01:28:41.875Z,19.45
2024-05-09T01:33:43.682Z,15.35
2024-05-09T01:45:46.488Z,15.68
2024-05-09T01:50:48.097Z,15.77
2024-05-09T01:55:49.754Z,18.67
2024-05-09T02:00:51.682Z,15.95
2024-05-09T02:05:53.509Z,17.83
2024-05-09T02:10:55.209Z,18.33
2024-05-09T02:15:56.826Z,16.70
2024-05-09T02:20:58.413Z,19.98
2024-05-09T02:26:00.046Z,18.63
2024-05-09T02:31:01.637Z,19.38
2024-05-09T02:36:03.335Z,22.35
2024-05-09T02:41:04.976Z,16.75
2024-05-09T02:46:07.065Z,17.48
2024-05-09T02:51:08.828Z,19.20
2024-05-09T02:56:10.518Z,18.35
2024-05-09T03:01:12.167Z,20.08
2024-05-09T03:06:13.941Z,17.35
2024-05-09T03:11:23.627Z,18.77
2024-05-09T03:16:25.214Z,19.98
2024-05-09T03:21:26.960Z,22.55
2024-05-09T03:26:28.669Z,18.38
2024-05-09T03:31:30.264Z,17.90
2024-05-09T03:36:31.815Z,18.63
2024-05-09T03:41:33.540Z,20.73
2024-05-09T03:46:38.819Z,23.10
2024-05-09T03:51:40.379Z,18.80
2024-05-09T03:56:41.995Z,19.42
2024-05-09T04:01:43.755Z,20.13
2024-05-09T04:06:45.389Z,21.02
2024-05-09T04:11:48.739Z,20.77
2024-05-09T04:16:50.427Z,18.52
2024-05-09T04:21:52.025Z,18.73
2024-05-09T04:26:53.615Z,19.17
2024-05-09T04:31:55.321Z,25.20
2024-05-09T04:36:57.082Z,21.83
2024-05-09T04:41:58.780Z,22.65
2024-05-09T04:47:00.374Z,20.95
2024-05-09T04:52:02.149Z,21.55
2024-05-09T04:57:03.881Z,19.73
2024-05-09T05:02:05.586Z,21.55
2024-05-09T05:07:07.231Z,21.13
2024-05-09T05:12:28.863Z,24.67
2024-05-09T05:17:30.669Z,27.95
2024-05-09T05:22:32.276Z,22.65
2024-05-09T05:27:33.824Z,23.85
2024-05-09T05:32:35.462Z,23.17
2024-05-09T05:37:37.134Z,23.48
2024-05-09T05:42:38.715Z,22.58
2024-05-09T05:47:40.464Z,21.23
2024-05-09T05:52:42.215Z,23.67
2024-05-09T05:57:43.767Z,21.08
2024-05-09T06:02:45.477Z,24.38
2024-05-09T06:07:47.178Z,17.63
2024-05-09T06:12:48.755Z,20.70
2024-05-09T06:17:50.435Z,25.63
2024-05-09T06:22:52.099Z,23.75
2024-05-09T06:27:53.689Z,21.30
2024-05-09T06:32:55.310Z,20.05
2024-05-09T06:37:57.004Z,20.55
2024-05-09T06:42:59.132Z,20.27
2024-05-09T06:48:00.945Z,18.98
2024-05-09T06:53:02.914Z,24.38
2024-05-09T06:58:06.023Z,21.40
2024-05-09T07:03:13.629Z,21.33
2024-05-09T07:08:18.380Z,22.27
2024-05-09T07:13:20.072Z,26.13
2024-05-09T07:18:21.962Z,24.45
2024-05-09T07:23:23.641Z,20.73
2024-05-09T07:28:26.192Z,18.35
2024-05-09T07:33:27.896Z,20.92
2024-05-09T07:38:29.540Z,26.05
2024-05-09T07:43:31.119Z,20.13
2024-05-09T07:50:33.298Z,25.88
2024-05-09T07:53:57.104Z,22.65
2024-05-09T07:59:01.234Z,22.85
2024-05-09T08:04:02.923Z,25.02
2024-05-09T08:09:08.221Z,21.08
2024-05-09T08:14:15.202Z,20.33
2024-05-09T08:19:16.868Z,20.15
2024-05-09T08:24:18.456Z,19.83
2024-05-09T08:29:20.146Z,18.90
2024-05-09T08:34:22.014Z,18.15
2024-05-09T08:39:23.734Z,19.55
2024-05-09T08:44:25.304Z,22.38
2024-05-09T08:49:26.973Z,19.17
2024-05-09T08:54:30.180Z,18.33
2024-05-09T08:59:38.327Z,18.65
2024-05-09T09:04:40.986Z,18.02
2024-05-09T09:09:45.610Z,21.27
2024-05-09T09:14:47.308Z,16.95
2024-05-09T09:19:48.923Z,16.92
2024-05-09T09:24:51.446Z,18.70
2024-05-09T09:29:53.095Z,17.92
2024-05-09T09:34:54.774Z,14.00
2024-05-09T09:39:58.876Z,16.45
2024-05-09T09:45:05.330Z,15.70
2024-05-09T09:50:14.199Z,16.90
2024-05-09T09:55:19.041Z,16.77
2024-05-09T10:00:27.225Z,15.32
2024-05-09T10:05:34.953Z,11.80
2024-05-09T10:10:37.007Z,10.73
2024-05-09T10:15:52.418Z,11.43
2024-05-09T10:20:54.542Z,15.95
2024-05-09T10:26:06.291Z,10.13
2024-05-09T10:31:08.363Z,13.82
2024-05-09T10:36:14.158Z,8.32
2024-05-09T10:41:19.699Z,13.30
2024-05-09T10:46:21.874Z,9.98
2024-05-09T10:51:24.487Z,12.65
2024-05-09T10:56:26.368Z,9.85
2024-05-09T11:01:28.714Z,11.88
2024-05-09T11:06:30.564Z,15.02
2024-05-09T11:11:32.463Z,10.80
2024-05-09T11:16:34.077Z,8.65
2024-05-09T11:21:35.645Z,9.32
2024-05-09T11:26:37.303Z,7.22
2024-05-09T11:31:48.698Z,8.07
2024-05-09T11:36:50.374Z,11.15
2024-05-09T11:41:51.968Z,9.10
2024-05-09T11:46:54.520Z,8.57
2024-05-09T11:51:56.222Z,10.55
2024-05-09T11:56:57.850Z,6.63
2024-05-09T12:01:59.531Z,7.72
2024-05-09T12:07:01.212Z,9.45
2024-05-09T12:12:02.867Z,8.10
2024-05-09T12:17:05.563Z,7.13
2024-05-09T12:22:07.267Z,8.50
2024-05-09T12:27:09.073Z,10.65
2024-05-09T12:32:10.754Z,9.52
2024-05-09T12:37:12.442Z,12.05
2024-05-09T12:42:26.030Z,11.05
2024-05-09T12:47:29.339Z,10.52
2024-05-09T12:52:31.394Z,9.18
2024-05-09T12:57:33.060Z,12.00
2024-05-09T13:02:34.774Z,11.52
2024-05-09T13:07:36.474Z,8.02
2024-05-09T13:12:38.441Z,10.60
2024-05-09T13:17:40.190Z,7.05
2024-05-09T13:22:42.496Z,7.80
2024-05-09T13:27:45.033Z,6.30
2024-05-09T13:32:46.679Z,9.20
2024-05-09T13:37:48.362Z,6.82
2024-05-09T13:42:49.998Z,10.23
2024-05-09T13:47:51.664Z,7.35
2024-05-09T13:52:53.415Z,7.55
2024-05-09T13:57:55.379Z,9.02
2024-05-09T14:02:57.298Z,7.03
2024-05-09T14:07:58.947Z,6.40
2024-05-09T14:13:01.176Z,6.82
2024-05-09T14:18:03.948Z,7.32
2024-05-09T14:23:05.559Z,8.00
2024-05-09T14:28:07.395Z,8.70
2024-05-09T14:33:09.666Z,5.65
2024-05-09T14:38:11.509Z,8.02
2024-05-09T14:43:14.764Z,13.00
2024-05-09T14:48:17.214Z,9.70
2024-05-09T14:53:18.971Z,8.43
2024-05-09T14:58:20.863Z,10.15
2024-05-09T15:03:22.910Z,8.93
2024-05-09T15:08:24.729Z,7.95
2024-05-09T15:13:26.550Z,8.45
2024-05-09T15:18:28.504Z,7.28
2024-05-09T15:23:30.114Z,7.55
2024-05-09T15:28:31.849Z,8.93
2024-05-09T15:33:33.612Z,8.50
2024-05-09T15:38:35.497Z,8.10
2024-05-09T15:43:37.081Z,7.60
2024-05-09T15:48:42.681Z,7.70
2024-05-09T15:53:46.181Z,8.10
2024-05-09T15:58:47.820Z,7.07
2024-05-09T16:03:49.695Z,12.60
2024-05-09T16:08:51.517Z,6.53
2024-05-09T16:13:53.058Z,11.43
2024-05-09T16:18:54.905Z,8.88
2024-05-09T16:23:56.545Z,7.22
2024-05-09T16:28:58.200Z,10.65
2024-05-09T16:34:00.060Z,6.60
2024-05-09T16:39:01.897Z,5.15
2024-05-09T16:44:04.179Z,6.53
2024-05-09T16:49:05.892Z,5.88
2024-05-09T16:54:07.521Z,4.22
2024-05-09T16:59:09.260Z,6.35
2024-05-09T17:04:10.995Z,6.10
2024-05-09T17:09:15.611Z,5.55
2024-05-09T17:14:19.826Z,5.75
2024-05-09T17:19:21.520Z,7.68
2024-05-09T17:24:23.259Z,3.13
2024-05-09T17:29:24.893Z,4.80
2024-05-09T17:34:27.077Z,5.40
2024-05-09T17:39:28.732Z,5.45
2024-05-09T17:44:30.283Z,4.65
2024-05-09T17:49:32.278Z,3.15
2024-05-09T17:54:33.985Z,3.78
2024-05-09T17:59:35.594Z,6.70
2024-05-09T18:04:37.224Z,4.43
2024-05-09T18:09:38.951Z,4.90
2024-05-09T18:14:40.996Z,4.68
2024-05-09T18:19:42.645Z,6.65
2024-05-09T18:24:44.263Z,4.80
2024-05-09T18:29:45.829Z,4.88
2024-05-09T18:34:47.454Z,4.32
2024-05-09T18:39:49.255Z,4.20
2024-05-09T18:44:50.927Z,5.47
2024-05-09T18:49:53.024Z,5.65
2024-05-09T18:54:55.029Z,5.13
2024-05-09T18:59:56.689Z,8.80
2024-05-09T19:04:58.452Z,10.10
2024-05-09T19:10:00.730Z,12.25
2024-05-09T19:15:02.325Z,12.13
2024-05-09T19:20:05.771Z,8.65
2024-05-09T19:25:07.899Z,10.15
2024-05-09T19:30:17.242Z,11.73
2024-05-09T19:35:23.337Z,12.38
2024-05-09T19:40:30.819Z,10.93
2024-05-09T19:45:35.646Z,14.52
2024-05-09T19:50:42.907Z,12.82
2024-05-09T19:55:46.213Z,14.02
2024-05-09T20:00:48.021Z,12.20
2024-05-09T20:05:49.865Z,16.20
2024-05-09T20:10:51.521Z,15.32
2024-05-09T20:15:53.188Z,13.18
2024-05-09T20:20:54.790Z,13.65
2024-05-09T20:25:56.454Z,17.52
2024-05-09T20:30:58.007Z,14.18
2024-05-09T20:36:01.822Z,14.88
2024-05-09T20:41:04.092Z,12.00
2024-05-09T20:46:05.886Z,17.63
2024-05-09T20:51:07.579Z,12.63
2024-05-09T20:56:09.258Z,12.73
2024-05-09T21:01:10.913Z,12.20
2024-05-09T21:06:12.669Z,11.02
2024-05-09T21:11:14.223Z,10.55
2024-05-09T21:16:15.878Z,10.80
2024-05-09T21:21:17.562Z,10.18
2024-05-09T21:26:20.344Z,12.95
2024-05-09T21:31:21.948Z,12.10
2024-05-09T21:36:23.580Z,9.80
2024-05-09T21:41:25.257Z,9.90
2024-05-09T21:46:27.006Z,11.43
2024-05-09T21:51:29.106Z,11.95
2024-05-09T21:56:30.776Z,12.98
2024-05-09T22:01:33.958Z,13.00
2024-05-09T22:06:35.677Z,11.20
2024-05-09T22:11:37.437Z,12.32
2024-05-09T22:16:41.815Z,10.90
2024-05-09T22:21:43.428Z,9.32
2024-05-09T22:26:45.021Z,8.85
2024-05-09T22:31:46.620Z,10.20
2024-05-09T22:36:48.299Z,13.30
2024-05-09T22:41:50.329Z,13.05
2024-05-09T22:46:51.928Z,13.60
2024-05-09T22:51:53.542Z,15.07
2024-05-09T22:56:55.125Z,15.07
2024-05-09T23:01:56.840Z,10.50
2024-05-09T23:06:59.349Z,12.52
2024-05-09T23:12:01.125Z,11.30
2024-05-09T23:17:02.885Z,10.68
2024-05-09T23:22:04.598Z,10.93
2024-05-09T23:27:06.166Z,13.98
2024-05-09T23:32:09.380Z,12.45
2024-05-09T23:37:11.037Z,14.38
2024-05-09T23:42:12.697Z,12.27
2024-05-09T23:47:14.277Z,12.88
2024-05-09T23:52:15.971Z,14.38
2024-05-09T23:57:17.577Z,14.52
